tititudorancea.com
Station Historical Data
Daily Summary for November 1, 2018 Units:  Metric    English   Both
« Previous Day
Next Day »
Daily Weekly Monthly Yearly Custom
  High: Low: Average:
Temperature: -17.8 °C 14.3 °C 24.1 °C
Dew Point: -17.8 °C 3.3 °C 10.3 °C
Humidity: Humidity % 16 % 47 %
Wind Speed: 0 km/h 0 km/h 16.7 km/h
Wind Gust: 0 km/h - -
Wind:- - WSW
Pressure: 0 hPa 1006.7 hPa -
Precipitation: 0 mm    
Historical Graphs
 
 
Ararat weather Find more about Weather in Ararat, AU


 



 


Tabular Data for November 1, 2018
Time Temperature Dew Point Pressure Wind Wind Speed Wind Gust Humidity Rainfall Rate (Hourly)
-17.8 °C -17.8 °C 0 hPa Calm     Humidity % 0 mm
00:04 15.9 °C 12.4 °C 1015.5 hPa Calm     80 % 0 mm
00:09 15.8 °C 12.3 °C 1015.1 hPa Calm     80 % 0 mm
00:14 15.7 °C 12.4 °C 1015.1 hPa Calm     81 % 0 mm
00:19 15.5 °C 12.3 °C 1015.1 hPa Calm     81 % 0 mm
00:24 15.3 °C 12.3 °C 1015.1 hPa Calm     82 % 0 mm
00:29 15.2 °C 12.2 °C 1015.1 hPa Calm     82 % 0 mm
00:34 15.1 °C 12.2 °C 1015.1 hPa Calm     83 % 0 mm
00:39 14.9 °C 12.1 °C 1014.8 hPa Calm     83 % 0 mm
00:44 14.9 °C 12 °C 1014.8 hPa Calm     83 % 0 mm
00:49 14.7 °C 11.9 °C 1014.8 hPa Calm     83 % 0 mm
00:54 14.6 °C 11.9 °C 1014.4 hPa Calm     84 % 0 mm
00:59 14.5 °C 11.8 °C 1014.4 hPa Calm     84 % 0 mm
01:04 14.3 °C 11.8 °C 1014.8 hPa Calm     85 % 0 mm
01:09 14.3 °C 11.9 °C 1014.8 hPa South 5.6 km/h 3.2 km/h 86 % 0 mm
01:14 14.3 °C 11.9 °C 1015.1 hPa South 6.4 km/h 5.3 km/h 86 % 0 mm
01:19 14.6 °C 12.3 °C 1015.5 hPa South 5.6 km/h 5.5 km/h 86 % 0 mm
01:24 15.2 °C 12.7 °C 1015.5 hPa South 7.4 km/h 4.7 km/h 85 % 0 mm
01:29 15.8 °C 12.6 °C 1015.5 hPa Calm     81 % 0 mm
01:34 16.1 °C 12.4 °C 1015.1 hPa South 5.6 km/h 4 km/h 79 % 0 mm
01:39 16.3 °C 12.5 °C 1015.1 hPa South 5.6 km/h 3.9 km/h 78 % 0 mm
01:44 16.5 °C 12.4 °C 1014.8 hPa South 5.6 km/h 4.8 km/h 77 % 0 mm
01:49 16.5 °C 12.4 °C 1014.8 hPa South 3.7 km/h 3.2 km/h 77 % 0 mm
01:54 16.7 °C 12.4 °C 1014.1 hPa South 9.3 km/h 7.7 km/h 76 % 0 mm
01:59 16.8 °C 12.4 °C 1014.1 hPa South 13 km/h 10.6 km/h 75 % 0 mm
02:04 16.8 °C 12.1 °C 1014.1 hPa South 9.3 km/h 5.6 km/h 74 % 0 mm
02:09 16.7 °C 12.2 °C 1014.1 hPa South 7.4 km/h 5.3 km/h 75 % 0 mm
02:14 16.7 °C 12.2 °C 1013.8 hPa South 5.6 km/h 5.3 km/h 75 % 0 mm
02:19 16.8 °C 12.2 °C 1013.4 hPa South 11.3 km/h 8.5 km/h 74 % 0 mm
02:24 17 °C 12.1 °C 1013.4 hPa South 9.3 km/h 8 km/h 73 % 0 mm
02:29 17.2 °C 12.1 °C 1013.4 hPa South 9.3 km/h 7.1 km/h 72 % 0 mm
02:34 17.6 °C 12.3 °C 1013.8 hPa SSW 11.1 km/h 10 km/h 71 % 0 mm
02:39 17.9 °C 12.1 °C 1013.4 hPa SSW 7.4 km/h 5.1 km/h 69 % 0 mm
02:44 18.2 °C 11.9 °C 1013.4 hPa SSW 9.3 km/h 4.3 km/h 67 % 0 mm
02:49 18.4 °C 11.7 °C 1013.4 hPa SW 12.9 km/h 9.2 km/h 65 % 0 mm
02:54 18.5 °C 11.8 °C 1013.4 hPa SW 9.3 km/h 4.8 km/h 65 % 0 mm
02:59 18.5 °C 11.8 °C 1013.4 hPa WSW 9.3 km/h 6.4 km/h 65 % 0 mm
03:04 18.5 °C 11.8 °C 1013.4 hPa WSW 6.4 km/h 8 km/h 65 % 0 mm
03:09 18.4 °C 11.7 °C 1013.4 hPa WSW 5.6 km/h 5.1 km/h 65 % 0 mm
03:14 18.4 °C 11.7 °C 1013.4 hPa WSW 9.3 km/h 7.9 km/h 65 % 0 mm
03:19 18.3 °C 11.4 °C 1013.4 hPa WSW 9.3 km/h 7.2 km/h 64 % 0 mm
03:24 18.4 °C 11.5 °C 1013.4 hPa WSW 5.6 km/h 3.2 km/h 64 % 0 mm
03:29 18.4 °C 11.5 °C 1013.4 hPa WSW 5.6 km/h 0.3 km/h 64 % 0 mm
03:34 18.4 °C 11.4 °C 1013.4 hPa WSW 3.2 km/h 1 km/h 64 % 0 mm
03:39 18.4 °C 11.4 °C 1013.1 hPa WSW 1.9 km/h 1.3 km/h 64 % 0 mm
03:44 18.4 °C 11.4 °C 1013.4 hPa WSW 3.2 km/h 1.1 km/h 64 % 0 mm
03:49 18.4 °C 11.4 °C 1013.1 hPa WSW 5.6 km/h 2.4 km/h 64 % 0 mm
03:54 18.2 °C 11.3 °C 1013.4 hPa WSW 5.6 km/h 2.7 km/h 64 % 0 mm
03:59 18.2 °C 11.3 °C 1013.4 hPa Calm     64 % 0 mm
04:04 18.1 °C 11.4 °C 1013.4 hPa Calm     65 % 0 mm
04:09 17.9 °C 11.5 °C 1013.8 hPa WSW 5.6 km/h 3.1 km/h 66 % 0 mm
04:14 17.8 °C 11.4 °C 1013.4 hPa Calm     66 % 0 mm
04:19 17.7 °C 11.7 °C 1013.8 hPa WSW 5.6 km/h 2.7 km/h 68 % 0 mm
04:24 17.5 °C 11.7 °C 1013.8 hPa WSW 3.7 km/h 0.6 km/h 69 % 0 mm
04:29 17.4 °C 11.8 °C 1014.1 hPa WSW 4.8 km/h 1.6 km/h 70 % 0 mm
04:34 17.3 °C 11.6 °C 1014.1 hPa WSW 5.6 km/h 1.6 km/h 69 % 0 mm
04:39 17.3 °C 11.6 °C 1014.1 hPa WSW 3.7 km/h 3.5 km/h 69 % 0 mm
04:44 17.4 °C 11.4 °C 1014.4 hPa WSW 3.7 km/h 0.8 km/h 68 % 0 mm
04:49 17.5 °C 11.5 °C 1014.4 hPa WSW 8 km/h 5.1 km/h 68 % 0 mm
04:54 17.8 °C 11.6 °C 1014.1 hPa WSW 5.6 km/h 3.2 km/h 67 % 0 mm
04:59 18 °C 11.6 °C 1014.1 hPa WSW 5.6 km/h 2.3 km/h 66 % 0 mm
05:04 18.2 °C 11.7 °C 1014.1 hPa Calm     66 % 0 mm
05:09 18.1 °C 11.7 °C 1014.1 hPa WSW 1.9 km/h 1.3 km/h 66 % 0 mm
05:14 18 °C 11.6 °C 1014.1 hPa WSW 5.6 km/h 2.9 km/h 66 % 0 mm
05:19 17.8 °C 11.8 °C 1014.1 hPa WSW 5.6 km/h 3.4 km/h 68 % 0 mm
05:24 17.7 °C 11.7 °C 1014.1 hPa Calm     68 % 0 mm
05:29 17.5 °C 11.7 °C 1014.1 hPa Calm     69 % 0 mm
05:34 17.3 °C 11.6 °C 1014.1 hPa WSW 1.9 km/h   69 % 0 mm
05:39 17.2 °C 11.7 °C 1014.1 hPa WSW 3.7 km/h 2.7 km/h 70 % 0 mm
05:44 17 °C 11.5 °C 1014.1 hPa WSW 3.7 km/h 0.2 km/h 70 % 0 mm
05:49 16.8 °C 11.3 °C 1014.1 hPa WSW 1.9 km/h 0.2 km/h 70 % 0 mm
05:54 16.6 °C 11.6 °C 1014.1 hPa Calm     72 % 0 mm
05:59 16.4 °C 11.4 °C 1014.4 hPa WSW 3.7 km/h 2.4 km/h 72 % 0 mm
06:04 16.3 °C 11.4 °C 1014.4 hPa Calm     73 % 0 mm
06:09 16.2 °C 11.6 °C 1014.4 hPa Calm     74 % 0 mm
06:14 16.2 °C 11.5 °C 1014.4 hPa Calm     74 % 0 mm
06:19 16.1 °C 11.5 °C 1014.4 hPa Calm     74 % 0 mm
06:24 16 °C 11.6 °C 1014.4 hPa WSW 4.8 km/h 1.9 km/h 75 % 0 mm
06:29 16 °C 11.6 °C 1014.8 hPa WSW 3.7 km/h 2.6 km/h 75 % 0 mm
06:34 16.1 °C 11.6 °C 1014.4 hPa WSW 1.9 km/h 0.5 km/h 75 % 0 mm
06:39 16 °C 11.6 °C 1014.4 hPa Calm     75 % 0 mm
06:44 16.1 °C 11.6 °C 1014.4 hPa WSW 1.6 km/h   75 % 0 mm
06:49 16.1 °C 11.6 °C 1014.4 hPa Calm     75 % 0 mm
06:54 16.1 °C 11.6 °C 1014.4 hPa Calm     75 % 0 mm
06:59 16.1 °C 11.6 °C 1014.4 hPa Calm     75 % 0 mm
07:04 16.1 °C 11.6 °C 1014.4 hPa Calm     75 % 0 mm
07:09 16.1 °C 11.8 °C 1014.4 hPa Calm     76 % 0 mm
07:14 16.1 °C 11.9 °C 1014.4 hPa Calm     76 % 0 mm
07:19 16.2 °C 12 °C 1014.8 hPa Calm     76 % 0 mm
07:24 16.3 °C 12.3 °C 1014.8 hPa Calm     77 % 0 mm
07:29 16.4 °C 12.4 °C 1014.8 hPa Calm     77 % 0 mm
07:34 16.7 °C 12.6 °C 1014.8 hPa Calm     77 % 0 mm
07:39 16.9 °C 12.8 °C 1014.8 hPa Calm     77 % 0 mm
07:44 17.1 °C 12.8 °C 1014.8 hPa Calm   0.2 km/h 76 % 0 mm
07:49 17.3 °C 12.8 °C 1014.4 hPa Calm     75 % 0 mm
07:54 17.6 °C 12.7 °C 1014.4 hPa WSW 5.6 km/h 1.3 km/h 73 % 0 mm
07:59 17.9 °C 12.6 °C 1014.4 hPa WSW 3.7 km/h 0.8 km/h 71 % 0 mm
08:04 18.3 °C 12.7 °C 1014.4 hPa WSW 5.6 km/h 2.6 km/h 70 % 0 mm
08:09 18.6 °C 12.6 °C 1014.4 hPa WSW 3.7 km/h 1.3 km/h 68 % 0 mm
08:14 18.9 °C 12.6 °C 1014.4 hPa WSW 3.7 km/h 0.2 km/h 67 % 0 mm
08:19 19.2 °C 12.9 °C 1014.4 hPa WSW 5.6 km/h 1.9 km/h 67 % 0 mm
08:24 19.4 °C 12.9 °C 1014.4 hPa Calm     66 % 0 mm
08:29 19.6 °C 12.8 °C 1014.4 hPa WSW 1.9 km/h   65 % 0 mm
08:34 19.9 °C 12.6 °C 1014.4 hPa WSW 5.6 km/h   63 % 0 mm
08:39 20.2 °C 12.9 °C 1014.4 hPa WSW 3.7 km/h   63 % 0 mm
08:44 20.4 °C 12.9 °C 1014.4 hPa WSW 3.2 km/h   62 % 0 mm
08:49 20.7 °C 13.1 °C 1014.4 hPa Calm     62 % 0 mm
08:54 20.9 °C 13.3 °C 1014.1 hPa Calm     62 % 0 mm
08:59 21.2 °C 13.7 °C 1014.1 hPa WSW 3.2 km/h 0.8 km/h 62 % 0 mm
09:04 21.4 °C 12.6 °C 1014.1 hPa WSW 5.6 km/h 2.1 km/h 57 % 0 mm
09:09 21.7 °C 12.8 °C 1014.1 hPa WSW 5.6 km/h 3.4 km/h 57 % 0 mm
09:14 21.9 °C 12.8 °C 1013.8 hPa WSW 5.6 km/h 4.3 km/h 56 % 0 mm
09:19 22.3 °C 13.1 °C 1013.8 hPa WSW 1.9 km/h 0.2 km/h 56 % 0 mm
09:24 22.7 °C 12.7 °C 1013.8 hPa WSW 5.6 km/h 3.5 km/h 53 % 0 mm
09:29 23.1 °C 12.4 °C 1013.8 hPa WSW 7.4 km/h 2.6 km/h 51 % 0 mm
09:34 23.5 °C 12.5 °C 1013.4 hPa WSW 5.6 km/h 3.4 km/h 50 % 0 mm
09:39 23.9 °C 12.2 °C 1013.4 hPa WSW 9.3 km/h 6 km/h 48 % 0 mm
09:44 24.3 °C 11.6 °C 1013.4 hPa NNW 18.5 km/h 11.7 km/h 45 % 0 mm
09:49 24.7 °C 11.7 °C 1013.4 hPa North 13 km/h 8 km/h 44 % 0 mm
09:54 25 °C 11.6 °C 1013.4 hPa NNW 16.1 km/h 7.6 km/h 43 % 0 mm
09:59 25.1 °C 10.9 °C 1013.4 hPa NNE 11.3 km/h 7.4 km/h 41 % 0 mm
10:04 25.2 °C 10.7 °C 1013.1 hPa NNE 14.8 km/h 10.9 km/h 40 % 0 mm
10:09 25.3 °C 10.4 °C 1013.1 hPa NNE 18.5 km/h 11.9 km/h 39 % 0 mm
10:14 25.4 °C 10.4 °C 1012.8 hPa NNE 18.5 km/h 8.7 km/h 39 % 0 mm
10:19 25.4 °C 10.5 °C 1012.8 hPa NNE 16.7 km/h 9.8 km/h 39 % 0 mm
10:24 25.6 °C 10.6 °C 1012.8 hPa NNE 11.3 km/h 3.9 km/h 39 % 0 mm
10:29 25.7 °C 10.3 °C 1012.4 hPa NNE 14.8 km/h 9.7 km/h 38 % 0 mm
10:34 25.8 °C 10.1 °C 1012.1 hPa NNE 18.5 km/h 10.5 km/h 37 % 0 mm
10:39 26.2 °C 9.9 °C 1012.1 hPa NNE 18.5 km/h 9.7 km/h 36 % 0 mm
10:44 26.6 °C 8.9 °C 1012.1 hPa NNE 17.7 km/h 16.1 km/h 33 % 0 mm
10:49 27.1 °C 8.5 °C 1012.1 hPa North 24.1 km/h 15 km/h 31 % 0 mm
10:54 27.4 °C 7.8 °C 1012.1 hPa NNE 33.8 km/h 19.6 km/h 29 % 0 mm
10:59 27.7 °C 8 °C 1012.1 hPa North 22.2 km/h 14 km/h 29 % 0 mm
11:04 27.7 °C 7.6 °C 1011.7 hPa NNE 31.5 km/h 20 km/h 28 % 0 mm
11:09 27.8 °C 8.2 °C 1011.7 hPa North 27.4 km/h 15 km/h 29 % 0 mm
11:14 27.9 °C 8.2 °C 1011.7 hPa NNW 24.1 km/h 13.2 km/h 29 % 0 mm
11:19 28 °C 7.8 °C 1011.7 hPa NNE 25.9 km/h 21.2 km/h 28 % 0 mm
11:24 28.1 °C 8.4 °C 1011.7 hPa NNE 31.5 km/h 11.7 km/h 29 % 0 mm
11:29 28.4 °C 8.6 °C 1011.7 hPa North 18.5 km/h 15.3 km/h 29 % 0 mm
11:34 28.7 °C 8.9 °C 1011.4 hPa NNE 18.5 km/h 10 km/h 29 % 0 mm
11:39 29.2 °C 8.8 °C 1011.1 hPa North 27.8 km/h 15.1 km/h 28 % 0 mm
11:44 29.5 °C 8 °C 1011.1 hPa North 29.6 km/h 17.4 km/h 26 % 0 mm
11:49 30 °C 7.8 °C 1011.1 hPa North 31.5 km/h 18.3 km/h 25 % 0 mm
11:54 30.2 °C 7.4 °C 1010.7 hPa North 33.3 km/h 19.8 km/h 24 % 0 mm
11:59 30.5 °C 6.4 °C 1010.7 hPa NW 35.2 km/h 21.4 km/h 22 % 0 mm
12:04 30.4 °C 7 °C 1010.4 hPa North 33.3 km/h 20 km/h 23 % 0 mm
12:09 30.8 °C 6.6 °C 1010.4 hPa NNE 27.4 km/h 23.5 km/h 22 % 0 mm
12:14 30.9 °C 6.7 °C 1010 hPa North 25.9 km/h 14.8 km/h 22 % 0 mm
12:19 31.3 °C 7 °C 1010 hPa NNE 25.9 km/h 17.2 km/h 22 % 0 mm
12:24 31.3 °C 6.3 °C 1010 hPa North 27.8 km/h 15.1 km/h 21 % 0 mm
12:29 31.4 °C 5.1 °C 1009.7 hPa North 25.9 km/h 21.6 km/h 19 % 0 mm
12:34 31.3 °C 5.7 °C 1009.7 hPa North 22.2 km/h 10.9 km/h 20 % 0 mm
12:39 31.3 °C 5.7 °C 1009.7 hPa NW 27.8 km/h 15.3 km/h 20 % 0 mm
12:44 31.2 °C 5.6 °C 1009.7 hPa North 31.5 km/h 15.8 km/h 20 % 0 mm
12:49 31.1 °C 6.2 °C 1009.7 hPa North 19.3 km/h 19.2 km/h 21 % 0 mm
12:54 31.3 °C 5.6 °C 1009.4 hPa North 25.9 km/h 17.7 km/h 20 % 0 mm
12:59 31.5 °C 5.8 °C 1009.7 hPa NNE 27.8 km/h 22.9 km/h 20 % 0 mm
13:04 31.7 °C 5.9 °C 1009.7 hPa NNW 31.5 km/h 18.5 km/h 20 % 0 mm
13:09 31.7 °C 5.9 °C 1009.4 hPa North 31.5 km/h 30.1 km/h 20 % 0 mm
13:14 31.4 °C 5 °C 1009.4 hPa North 38.9 km/h 19.6 km/h 19 % 0 mm
13:19 31.6 °C 5.9 °C 1009.4 hPa NW 29 km/h 18.3 km/h 20 % 0 mm
13:24 31.6 °C 5.2 °C 1009.4 hPa NNW 38.9 km/h 25.3 km/h 19 % 0 mm
13:29 31.4 °C 5.1 °C 1009 hPa North 35.2 km/h 21.7 km/h 19 % 0 mm
13:34 31.5 °C 5.8 °C 1009 hPa NNW 38.9 km/h 24.3 km/h 20 % 0 mm
13:39 31.4 °C 5.8 °C 1009 hPa North 27.8 km/h 15.9 km/h 20 % 0 mm
13:44 31.8 °C 6.1 °C 1008.7 hPa North 18.5 km/h 13.5 km/h 20 % 0 mm
13:49 32.1 °C 4.8 °C 1008.7 hPa North 42.6 km/h 24.9 km/h 18 % 0 mm
13:54 32.2 °C 4.8 °C 1008.4 hPa North 42.6 km/h 26.6 km/h 18 % 0 mm
13:59 32.3 °C 4.9 °C 1008.7 hPa NW 40.7 km/h 20.9 km/h 18 % 0 mm
14:04 32.2 °C 4.9 °C 1008.4 hPa NNW 40.7 km/h 24.1 km/h 18 % 0 mm
14:09 32.5 °C 4.3 °C 1008.4 hPa NNW 40.7 km/h 20.3 km/h 17 % 0 mm
14:14 32.6 °C 4.4 °C 1008 hPa North 35.2 km/h 26.4 km/h 17 % 0 mm
14:19 32.8 °C 3.7 °C 1008 hPa NNW 35.2 km/h 24.5 km/h 16 % 0 mm
14:24 32.8 °C 3.7 °C 1008 hPa North 33.3 km/h 23.8 km/h 16 % 0 mm
14:29 32.6 °C 3.5 °C 1008 hPa North 48.1 km/h 28.3 km/h 16 % 0 mm
14:34 32.3 °C 3.3 °C 1008 hPa NNW 40.7 km/h 18.2 km/h 16 % 0 mm
14:39 32.6 °C 3.5 °C 1008 hPa NNW 33.3 km/h 23.8 km/h 16 % 0 mm
14:44 32.7 °C 3.6 °C 1008 hPa NNW 40.7 km/h 25.3 km/h 16 % 0 mm
14:49 32.8 °C 3.7 °C 1008 hPa North 35.2 km/h 23.3 km/h 16 % 0 mm
14:54 32.8 °C 4.5 °C 1007.7 hPa North 29.6 km/h 13.7 km/h 17 % 0 mm
14:59 32.8 °C 3.7 °C 1007.7 hPa NW 24.1 km/h 18.2 km/h 16 % 0 mm
15:04 33 °C 4.7 °C 1007.7 hPa NNW 27.8 km/h 18.5 km/h 17 % 0 mm
15:09 33 °C 4.7 °C 1007.7 hPa NW 24.1 km/h 20.3 km/h 17 % 0 mm
15:14 32.8 °C 5.4 °C 1007.7 hPa NW 31.5 km/h 17.9 km/h 18 % 0 mm
15:19 32.8 °C 6.1 °C 1008 hPa NW 20.4 km/h 12.4 km/h 19 % 0 mm
15:24 32.7 °C 5.3 °C 1007.3 hPa NNW 31.5 km/h 19.8 km/h 18 % 0 mm
15:29 32.8 °C 5.4 °C 1007.3 hPa North 22.2 km/h 13.8 km/h 18 % 0 mm
15:34 32.9 °C 5.4 °C 1007.3 hPa North 20.4 km/h 13.2 km/h 18 % 0 mm
15:39 32.9 °C 5.5 °C 1007.3 hPa NW 18.5 km/h 18.7 km/h 18 % 0 mm
15:44 32.9 °C 5.5 °C 1007.3 hPa NW 32.2 km/h 22.7 km/h 18 % 0 mm
15:49 32.9 °C 5.4 °C 1007.3 hPa WNW 25.9 km/h 23.3 km/h 18 % 0 mm
15:54 32.9 °C 6.3 °C 1007.3 hPa NW 31.5 km/h 30.1 km/h 19 % 0 mm
15:59 32.9 °C 7 °C 1007.3 hPa WNW 29.6 km/h 23.2 km/h 20 % 0 mm
16:04 32.9 °C 7 °C 1007 hPa WNW 31.5 km/h 17.2 km/h 20 % 0 mm
16:09 32.9 °C 6.9 °C 1007 hPa WNW 33.3 km/h 25.4 km/h 20 % 0 mm
16:14 32.5 °C 8.1 °C 1007.3 hPa NW 33.3 km/h 22.7 km/h 22 % 0 mm
16:19 32.1 °C 9 °C 1007 hPa West 38.9 km/h 31.5 km/h 24 % 0 mm
16:24 31.8 °C 9.9 °C 1007 hPa WNW 31.5 km/h 24.1 km/h 26 % 0 mm
16:29 31.6 °C 10.8 °C 1007 hPa North 31.5 km/h 21.7 km/h 28 % 0 mm
16:34 31.4 °C 10.7 °C 1007 hPa WNW 41.8 km/h 27 km/h 28 % 0 mm
16:39 31.3 °C 11.1 °C 1007.3 hPa West 35.2 km/h 26.2 km/h 29 % 0 mm
16:44 31.3 °C 11.1 °C 1007.3 hPa West 38.9 km/h 23.8 km/h 29 % 0 mm
16:49 31.3 °C 11.6 °C 1007.3 hPa WNW 27.4 km/h 29.5 km/h 30 % 0 mm
16:54 31.1 °C 11.4 °C 1007 hPa West 31.5 km/h 20.1 km/h 30 % 0 mm
16:59 30.9 °C 11.3 °C 1007 hPa West 42.6 km/h 28.5 km/h 30 % 0 mm
17:04 30.9 °C 11.8 °C 1007 hPa NW 31.5 km/h 27.7 km/h 31 % 0 mm
17:09 30.8 °C 11.7 °C 1007.3 hPa West 33.3 km/h 19.5 km/h 31 % 0 mm
17:14 30.8 °C 11.7 °C 1007.3 hPa WNW 38.9 km/h 23.2 km/h 31 % 0 mm
17:19 30.6 °C 12.1 °C 1007.3 hPa WNW 42.6 km/h 26.6 km/h 32 % 0 mm
17:24 30.3 °C 11.7 °C 1007.3 hPa WNW 42.6 km/h 37.3 km/h 32 % 0 mm
17:29 30.1 °C 12.1 °C 1007.3 hPa North 35.2 km/h 24.9 km/h 33 % 0 mm
17:34 30 °C 11.9 °C 1007.7 hPa West 31.5 km/h 26.6 km/h 33 % 0 mm
17:39 29.8 °C 12.2 °C 1008 hPa WNW 44.4 km/h 33.6 km/h 34 % 0 mm
17:44 29.3 °C 12.2 °C 1008 hPa West 42.6 km/h 34.4 km/h 35 % 0 mm
17:49 28.5 °C 12.8 °C 1008 hPa WNW 29.6 km/h 21.6 km/h 38 % 0 mm
17:54 28.1 °C 12.8 °C 1008 hPa West 25.9 km/h 22.2 km/h 39 % 0 mm
17:59 28.1 °C 12.8 °C 1007.7 hPa WNW 22.2 km/h 15.9 km/h 39 % 0 mm
18:04 28.2 °C 12.6 °C 1007.7 hPa WNW 29.6 km/h 18.7 km/h 38 % 0 mm
18:09 28.4 °C 12.7 °C 1008 hPa WNW 29.6 km/h 19.8 km/h 38 % 0 mm
18:14 28.5 °C 12 °C 1007.7 hPa WNW 35.2 km/h 24.6 km/h 36 % 0 mm
18:19 28.6 °C 11.7 °C 1007.7 hPa WNW 38.9 km/h 30.1 km/h 35 % 0 mm
18:24 28.6 °C 11.7 °C 1007.7 hPa NW 42.6 km/h 27.8 km/h 35 % 0 mm
18:29 28.7 °C 11.7 °C 1007.7 hPa WNW 40.7 km/h 27.5 km/h 35 % 0 mm
18:34 28.5 °C 11.6 °C 1007.7 hPa North 38.9 km/h 31.2 km/h 35 % 0 mm
18:39 28.3 °C 11.8 °C 1007.3 hPa WNW 42.6 km/h 34 km/h 36 % 0 mm
18:44 28.3 °C 11.8 °C 1007.3 hPa WNW 42.6 km/h 27.4 km/h 36 % 0 mm
18:49 28.3 °C 12.2 °C 1007.3 hPa WNW 31.5 km/h 26.7 km/h 37 % 0 mm
18:54 28.2 °C 12.2 °C 1007.3 hPa West 44.4 km/h 23.7 km/h 37 % 0 mm
18:59 28.3 °C 11.8 °C 1007 hPa WNW 33.3 km/h 28.8 km/h 36 % 0 mm
19:04 28.8 °C 11.3 °C 1007.3 hPa WNW 42.6 km/h 28.3 km/h 34 % 0 mm
19:09 28.8 °C 11.8 °C 1007.3 hPa WNW 40.7 km/h 27.4 km/h 35 % 0 mm
19:14 28.7 °C 11.7 °C 1007.3 hPa WNW 31.5 km/h 19.3 km/h 35 % 0 mm
19:19 28.6 °C 11.7 °C 1007.3 hPa WNW 24.1 km/h 19.6 km/h 35 % 0 mm
19:24 28.7 °C 11.7 °C 1007.3 hPa West 31.5 km/h 20.1 km/h 35 % 0 mm
19:29 28.8 °C 11.8 °C 1007.3 hPa West 24.1 km/h 19.8 km/h 35 % 0 mm
19:34 28.8 °C 11.8 °C 1007.3 hPa North 22.2 km/h 15.1 km/h 35 % 0 mm
19:39 28.7 °C 11.7 °C 1007.3 hPa WNW 25.9 km/h 18.5 km/h 35 % 0 mm
19:44 28.7 °C 12.2 °C 1007 hPa WNW 18.5 km/h 11.1 km/h 36 % 0 mm
19:49 28.5 °C 12 °C 1007 hPa WNW 17.7 km/h 11.6 km/h 36 % 0 mm
19:54 28.3 °C 11.8 °C 1007 hPa West 16.7 km/h 14.5 km/h 36 % 0 mm
19:59 28.2 °C 12.2 °C 1007 hPa WNW 13 km/h 9.7 km/h 37 % 0 mm
20:04 28 °C 12.3 °C 1007.3 hPa WNW 11.1 km/h 8.5 km/h 38 % 0 mm
20:09 27.8 °C 12.2 °C 1007.3 hPa West 14.8 km/h 10.5 km/h 38 % 0 mm
20:14 27.8 °C 12.2 °C 1007.3 hPa West 13 km/h 8.2 km/h 38 % 0 mm
20:19 27.7 °C 12.1 °C 1007.3 hPa West 11.3 km/h 6.3 km/h 38 % 0 mm
20:24 27.7 °C 12.1 °C 1007.3 hPa WNW 9.3 km/h 8.7 km/h 38 % 0 mm
20:29 27.8 °C 12.2 °C 1007.3 hPa WNW 13 km/h 9 km/h 38 % 0 mm
20:34 27.8 °C 11.8 °C 1007.7 hPa North 18.5 km/h 11.7 km/h 37 % 0 mm
20:39 28.1 °C 12.1 °C 1007.7 hPa WNW 18.5 km/h 15.1 km/h 37 % 0 mm
20:44 28.2 °C 11.7 °C 1007.7 hPa NW 14.8 km/h 9.3 km/h 36 % 0 mm
20:49 28.3 °C 11.8 °C 1007.7 hPa NW 11.1 km/h 6.8 km/h 36 % 0 mm
20:54 28.2 °C 11.7 °C 1007.7 hPa NW 16.7 km/h 10 km/h 36 % 0 mm
20:59 28.3 °C 11.8 °C 1008 hPa North 20.9 km/h 15.8 km/h 36 % 0 mm
21:04 28.4 °C 11.9 °C 1008 hPa WNW 14.8 km/h 10.9 km/h 36 % 0 mm
21:09 28.4 °C 11.9 °C 1008 hPa North 22.5 km/h 10.3 km/h 36 % 0 mm
21:14 28.5 °C 11.6 °C 1008 hPa NW 18.5 km/h 10.9 km/h 35 % 0 mm
21:19 28.4 °C 11.9 °C 1008 hPa NNW 22.2 km/h 5.8 km/h 36 % 0 mm
21:24 28 °C 11.9 °C 1008.4 hPa NNW 8 km/h 6.4 km/h 37 % 0 mm
21:25 27.9 °C 11.8 °C 1008.4 hPa North 9.7 km/h 11.3 km/h 37 % 0 mm
21:37 26.8 °C 12.1 °C 1008.4 hPa NNW 9.3 km/h 5.8 km/h 40 % 0 mm
21:44 26.4 °C 12.1 °C 1008.7 hPa North 11.3 km/h 7.6 km/h 41 % 0 mm
21:45 26.4 °C 12.2 °C 1008.7 hPa North 4.8 km/h 14.5 km/h 41 % 0 mm
22:54 24.9 °C 12.5 °C 1007.7 hPa Calm     46 % 0 mm
22:59 24.6 °C 12.5 °C 1007.3 hPa North 5.6 km/h 3.9 km/h 47 % 0 mm
23:04 24.1 °C 12.4 °C 1007.3 hPa North 5.6 km/h 4.3 km/h 48 % 0 mm
23:04 24.1 °C 12.4 °C 1007.3 hPa North 5.6 km/h 4.3 km/h 48 % 0 mm
23:59 23.6 °C 12.6 °C 1006.7 hPa North 7.4 km/h 6.4 km/h 50 % 0 mm
Ararat Weather
Compliments of Weather Underground - 2 mb
Click here to send mail.


ABOUT

Live weather data from Ararat, Victoria, Australia, 3377
Data uploaded from Cumulus every 5 minutes to Weather Underground.
This site then downloads the raw data for formatting and display.
Metric and imperial data can be displayed. Graphs and historical data available.
Includes Sun and Moon times and rain image live from BOM.

Check out Ararat Weather on Facebook, Twitter and Google +

Help support ongoing costs by checking out the ads





Follow @AraratWeather